Time;durP1;ratioP1;P1;durP2;ratioP2;P2;SDS_P1;SDS_P2;PMS_P1;PMS_P2;Temp;Humidity;BMP_temperature;BMP_pressure;BME280_temperature;BME280_humidity;BME280_pressure;Samples;Min_cycle;Max_cycle;Signal;HPM_P1;HPM_P2
2022/05/25 00:01:08;;;;;;;24.82;19.00;;;;;;;14.38;100.00;97630.73;1757323;80;20862;-79
2022/05/25 00:03:35;;;;;;;21.45;17.25;;;;;;;14.38;98.29;97632.09;1729040;81;20980;-79
2022/05/25 00:06:01;;;;;;;21.25;17.23;;;;;;;14.35;99.11;97634.86;1766125;80;21070;-79
2022/05/25 00:08:27;;;;;;;20.45;16.42;;;;;;;14.35;100.00;97644.41;1771905;79;21024;-79
2022/05/25 00:10:53;;;;;;;33.02;16.95;;;;;;;14.33;100.00;97635.74;1762972;81;20947;-84
2022/05/25 00:13:19;;;;;;;20.30;15.60;;;;;;;14.32;100.00;97640.95;1780419;80;20959;-84
2022/05/25 00:15:45;;;;;;;22.73;18.00;;;;;;;14.32;100.00;97640.15;1766822;81;21067;-79
2022/05/25 00:18:11;;;;;;;20.90;16.02;;;;;;;14.34;100.00;97639.27;1732561;81;21054;-84
2022/05/25 00:20:37;;;;;;;18.73;16.27;;;;;;;14.34;100.00;97639.27;1751831;81;20971;-79
2022/05/25 00:23:03;;;;;;;20.35;16.50;;;;;;;14.32;100.00;97645.04;1702529;82;21016;-84
2022/05/25 00:25:33;;;;;;;23.62;17.10;;;;;;;14.33;100.00;97644.48;1743527;81;20939;-84
2022/05/25 00:28:00;;;;;;;20.00;15.98;;;;;;;14.34;99.53;97635.18;1733089;82;21028;-79
2022/05/25 00:30:27;;;;;;;17.85;15.75;;;;;;;14.32;99.24;97638.23;1760988;81;21157;-84
2022/05/25 00:32:56;;;;;;;22.58;16.23;;;;;;;14.30;100.00;97639.11;1762367;81;21013;-84
2022/05/25 00:35:24;;;;;;;19.73;15.53;;;;;;;14.30;100.00;97634.22;1716048;81;21747;-79
2022/05/25 00:37:50;;;;;;;21.27;15.20;;;;;;;14.31;100.00;97633.89;1762523;81;21013;-79
2022/05/25 00:40:23;;;;;;;29.77;14.95;;;;;;;14.27;99.22;97637.02;1763363;81;20946;-79
2022/05/25 00:42:49;;;;;;;20.23;16.00;;;;;;;14.26;99.18;97634.58;1751204;80;21773;-84
2022/05/25 00:45:15;;;;;;;20.35;15.80;;;;;;;14.30;99.29;97641.83;1786474;80;20881;-84
2022/05/25 00:47:43;;;;;;;18.90;15.68;;;;;;;14.32;99.52;97639.59;1792912;80;21650;-84
2022/05/25 00:50:12;;;;;;;23.83;15.90;;;;;;;14.33;100.00;97641.19;1792626;80;21406;-84
2022/05/25 00:52:38;;;;;;;;;;;;;;;14.38;100.00;97638.91;1764792;80;21091;-84
2022/05/25 00:55:07;;;;;;;18.73;15.65;;;;;;;14.40;100.00;97646.20;1786906;80;21160;-79
2022/05/25 00:57:44;;;;;;;18.25;14.30;;;;;;;14.32;100.00;97645.04;1792605;80;21005;-79
2022/05/25 01:00:17;;;;;;;17.52;12.98;;;;;;;14.29;100.00;97648.41;1747644;81;21027;-79
2022/05/25 01:02:50;;;;;;;16.20;13.53;;;;;;;14.28;100.00;97655.53;1780303;80;20995;-84
2022/05/25 01:05:19;;;;;;;16.00;13.60;;;;;;;14.25;100.00;97655.58;1739698;80;21010;-79
2022/05/25 01:07:57;;;;;;;;;;;;;;;14.24;99.74;97649.88;1763886;81;21256;-84
2022/05/25 01:11:08;;;;;;;17.30;14.15;;;;;;;14.25;99.69;97647.95;1753910;81;20190;-84
2022/05/25 01:14:03;;;;;;;24.40;15.05;;;;;;;14.23;99.63;97640.66;1752432;81;20998;-80
2022/05/25 01:17:01;;;;;;;25.25;16.02;;;;;;;14.22;99.41;97651.32;1761407;81;20991;-79
2022/05/25 01:19:41;;;;;;;23.45;15.68;;;;;;;14.22;100.00;97637.70;1795694;79;21052;-84
2022/05/25 01:22:46;;;;;;;20.02;15.88;;;;;;;14.25;100.00;97642.52;1756608;80;21140;-84
2022/05/25 01:25:21;;;;;;;19.95;14.40;;;;;;;14.26;100.00;97642.19;1749996;80;20983;-79
2022/05/25 01:27:48;;;;;;;21.77;14.70;;;;;;;14.28;100.00;97647.36;1757939;81;21025;-84
2022/05/25 01:30:22;;;;;;;17.57;15.38;;;;;;;14.29;100.00;97648.41;1721932;81;21021;-83
2022/05/25 01:33:12;;;;;;;19.90;14.78;;;;;;;14.29;100.00;97647.59;1732180;82;21083;-84
2022/05/25 01:36:07;;;;;;;17.48;14.15;;;;;;;14.30;100.00;97650.56;1751191;81;21113;-84
2022/05/25 01:38:44;;;;;;;16.87;14.13;;;;;;;14.33;100.00;97655.38;1750963;81;21014;-84
2022/05/25 01:41:44;;;;;;;18.30;14.95;;;;;;;14.33;100.00;97659.47;1751136;81;21389;-84
2022/05/25 01:44:15;;;;;;;17.45;14.60;;;;;;;14.34;100.00;97664.60;1751230;81;21045;-79
2022/05/25 01:46:46;;;;;;;20.72;14.63;;;;;;;14.38;100.00;97669.69;1751034;81;21104;-80
2022/05/25 01:49:16;;;;;;;20.27;15.53;;;;;;;14.39;100.00;97659.03;1754833;81;21057;-84
2022/05/25 01:51:49;;;;;;;18.27;14.38;;;;;;;14.41;100.00;97660.07;1759446;81;21202;-81
2022/05/25 01:54:18;;;;;;;16.95;14.47;;;;;;;14.41;100.00;97658.71;1780277;80;21083;-79
2022/05/25 01:56:47;;;;;;;23.87;16.23;;;;;;;14.40;100.00;97660.63;1761293;81;21539;-84
2022/05/25 01:59:14;;;;;;;16.73;13.55;;;;;;;14.42;100.00;97661.67;1772974;80;21015;-79
2022/05/25 02:04:19;;;;;;;19.62;14.00;;;;;;;14.42;100.00;97656.78;1780236;80;21530;-80
2022/05/25 02:04:20;;;;;;;15.83;13.68;;;;;;;14.40;100.00;97665.28;1755243;80;21086;-79
2022/05/25 02:07:19;;;;;;;15.63;13.05;;;;;;;14.38;99.99;97660.71;1731058;81;20944;-79
2022/05/25 02:10:23;;;;;;;17.12;13.72;;;;;;;14.35;100.00;97655.30;1745393;81;21017;-79
2022/05/25 02:12:57;;;;;;;19.48;14.23;;;;;;;14.38;99.93;97653.34;1753934;81;21003;-79
2022/05/25 02:15:47;;;;;;;21.55;14.15;;;;;;;14.38;99.45;97659.34;1777331;80;21888;-79
2022/05/25 02:18:41;;;;;;;22.70;14.78;;;;;;;14.38;99.83;97660.15;1772722;80;21012;-84
2022/05/25 02:21:18;;;;;;;20.57;13.68;;;;;;;14.40;99.78;97659.83;1769539;81;21023;-84
2022/05/25 02:24:06;;;;;;;18.60;14.68;;;;;;;14.43;99.83;97661.12;1770656;79;21424;-84
2022/05/25 02:26:43;;;;;;;20.88;14.68;;;;;;;14.44;99.39;97664.92;1745466;81;21075;-84
2022/05/25 02:29:25;;;;;;;23.27;14.73;;;;;;;14.43;99.81;97663.84;1744759;81;21075;-79
2022/05/25 02:32:05;;;;;;;16.55;14.13;;;;;;;14.44;99.02;97662.19;1750046;81;21021;-79
2022/05/25 02:34:31;;;;;;;22.77;15.43;;;;;;;14.43;98.61;97661.12;1781300;79;21523;-79
2022/05/25 02:36:57;;;;;;;17.80;14.28;;;;;;;14.40;98.62;97655.19;1755496;79;20868;-79
2022/05/25 02:39:23;;;;;;;20.52;15.00;;;;;;;14.35;100.00;97655.30;1705883;82;20964;-84
2022/05/25 02:41:53;;;;;;;19.25;14.03;;;;;;;14.36;100.00;97655.58;1774277;80;21078;-79
2022/05/25 02:44:19;;;;;;;17.05;13.55;;;;;;;14.36;100.00;97650.12;1736329;81;21022;-79
2022/05/25 02:46:45;;;;;;;18.35;15.58;;;;;;;14.37;99.79;97653.09;1740353;82;21085;-79
2022/05/25 02:49:11;;;;;;;21.17;15.90;;;;;;;14.39;99.44;97658.23;1770664;80;20888;-84
2022/05/25 02:51:36;;;;;;;22.22;14.40;;;;;;;14.39;99.45;97667.20;1769485;81;21050;-84
2022/05/25 02:54:04;;;;;;;23.87;15.35;;;;;;;14.45;99.26;97673.90;1783802;79;20923;-79
2022/05/25 02:56:29;;;;;;;19.00;14.00;;;;;;;14.46;99.18;97662.70;1770715;80;21077;-84
2022/05/25 02:58:55;;;;;;;21.70;13.90;;;;;;;14.45;99.03;97669.28;1778233;80;20938;-84
2022/05/25 03:01:21;;;;;;;17.92;14.28;;;;;;;14.46;99.00;97668.16;1770952;80;21131;-83
2022/05/25 03:03:47;;;;;;;17.95;13.08;;;;;;;14.44;98.91;97666.81;1786871;79;20866;-84
2022/05/25 03:06:13;;;;;;;19.07;12.95;;;;;;;14.43;98.89;97674.19;1744393;79;21159;-79
2022/05/25 03:08:41;;;;;;;21.73;13.80;;;;;;;14.45;98.87;97683.44;1774377;79;21063;-80
2022/05/25 03:11:07;;;;;;;16.65;13.13;;;;;;;14.44;98.82;97681.27;1746541;81;21039;-79
2022/05/25 03:13:33;;;;;;;18.40;13.65;;;;;;;14.43;98.69;97681.56;1783571;79;21473;-84
2022/05/25 03:15:59;;;;;;;17.77;13.03;;;;;;;14.39;98.58;97674.58;1780171;80;20893;-84
2022/05/25 03:18:26;;;;;;;23.60;15.80;;;;;;;14.39;99.28;97686.28;1746129;80;21475;-84
2022/05/25 03:20:51;;;;;;;16.12;14.10;;;;;;;14.41;99.27;97676.43;1769594;80;21074;-80
2022/05/25 03:23:17;;;;;;;16.07;12.60;;;;;;;14.42;98.90;97679.39;1782400;79;21542;-79
2022/05/25 03:25:46;;;;;;;20.23;13.15;;;;;;;14.44;98.65;97686.73;1750812;80;20939;-79
2022/05/25 03:28:13;;;;;;;15.38;13.03;;;;;;;14.40;98.58;97679.72;1780156;79;21423;-84
2022/05/25 03:30:40;;;;;;;19.02;13.75;;;;;;;14.38;99.51;97677.86;1774976;80;21000;-84
2022/05/25 03:33:06;;;;;;;19.32;14.98;;;;;;;14.38;100.00;97683.87;1731013;82;21052;-84
2022/05/25 03:35:32;;;;;;;18.17;14.73;;;;;;;14.41;100.00;97685.97;1749212;81;20954;-84
2022/05/25 03:37:58;;;;;;;19.02;15.68;;;;;;;14.44;99.56;97677.72;1731097;82;20991;-84
2022/05/25 03:40:24;;;;;;;20.82;14.40;;;;;;;14.47;100.00;97683.95;1749265;81;21656;-84
2022/05/25 03:42:50;;;;;;;24.63;15.93;;;;;;;14.51;99.74;97689.02;1751783;81;21029;-80
2022/05/25 03:45:17;;;;;;;21.97;15.88;;;;;;;14.53;99.73;97689.53;1751922;81;20950;-84
2022/05/25 03:47:43;;;;;;;21.00;15.00;;;;;;;14.57;99.51;97694.59;1751848;81;21065;-84
2022/05/25 03:50:09;;;;;;;19.87;15.53;;;;;;;14.57;100.00;97695.39;1758499;81;20864;-79
2022/05/25 03:52:36;;;;;;;25.45;15.80;;;;;;;14.59;100.00;97695.07;1780280;80;21442;-80
2022/05/25 03:55:02;;;;;;;21.15;15.25;;;;;;;14.61;99.44;97700.48;1784328;80;21307;-84
2022/05/25 03:57:28;;;;;;;18.82;15.00;;;;;;;14.60;100.00;97696.11;1792619;80;20882;-79
2022/05/25 03:59:53;;;;;;;22.02;14.87;;;;;;;14.63;99.49;97696.06;1767336;80;20864;-79
2022/05/25 04:02:19;;;;;;;19.10;14.03;;;;;;;14.63;99.78;97698.80;1780258;80;20911;-80
2022/05/25 04:04:45;;;;;;;19.25;15.28;;;;;;;14.59;99.56;97697.80;1747748;81;20922;-84
2022/05/25 04:07:12;;;;;;;16.65;14.20;;;;;;;14.60;99.51;97693.39;1757670;81;21772;-85
2022/05/25 04:09:38;;;;;;;21.82;14.80;;;;;;;14.61;99.42;97695.02;1795619;79;21029;-79
2022/05/25 04:12:04;;;;;;;17.92;14.53;;;;;;;14.63;99.63;97691.98;1744146;81;21007;-79
2022/05/25 04:14:30;;;;;;;18.42;15.55;;;;;;;14.63;99.99;97694.14;1743622;81;21092;-84
2022/05/25 04:16:56;;;;;;;21.93;17.45;;;;;;;14.60;100.00;97692.58;1751899;81;20977;-79
2022/05/25 04:19:22;;;;;;;18.77;16.32;;;;;;;14.60;100.00;97686.57;1752017;81;21159;-84
2022/05/25 04:21:48;;;;;;;16.80;14.53;;;;;;;14.59;100.00;97675.42;1751718;81;20945;-84
2022/05/25 04:24:16;;;;;;;15.38;13.58;;;;;;;14.63;100.00;97668.23;1757288;80;21076;-84
2022/05/25 04:26:42;;;;;;;18.15;15.93;;;;;;;14.65;100.00;97672.02;1751318;81;21066;-84
2022/05/25 04:29:08;;;;;;;25.92;18.62;;;;;;;14.61;99.90;97675.10;1783564;79;20994;-79
2022/05/25 04:31:34;;;;;;;20.80;16.67;;;;;;;14.59;100.00;97673.25;1771086;80;21078;-79
2022/05/25 04:33:59;;;;;;;22.82;15.68;;;;;;;14.57;99.55;97670.05;1791861;79;20932;-84
2022/05/25 04:36:25;;;;;;;18.32;16.30;;;;;;;14.60;99.61;97671.58;1780591;79;20905;-79
2022/05/25 04:38:51;;;;;;;21.48;15.48;;;;;;;14.60;99.52;97670.21;1772307;80;20875;-84
2022/05/25 04:41:17;;;;;;;19.60;15.08;;;;;;;14.62;99.65;97672.09;1787321;79;20991;-80
2022/05/25 04:43:43;;;;;;;24.12;16.12;;;;;;;14.62;99.53;97672.09;1780325;80;21048;-80
2022/05/25 04:46:11;;;;;;;22.15;16.27;;;;;;;14.61;99.76;97672.38;1793012;80;20897;-79
2022/05/25 04:48:37;;;;;;;18.67;15.35;;;;;;;14.60;99.71;97676.22;1789485;80;21048;-84
2022/05/25 04:51:03;;;;;;;21.42;16.65;;;;;;;14.64;99.64;97685.41;1739839;81;21003;-79
2022/05/25 04:53:29;;;;;;;21.48;15.03;;;;;;;14.70;99.76;97684.69;1752621;81;20978;-84
2022/05/25 04:58:45;;;;;;;18.20;16.32;;;;;;;14.73;99.47;97682.72;1753505;79;21075;-85
2022/05/25 05:01:12;;;;;;;23.20;16.67;;;;;;;14.82;99.38;97687.08;1763847;80;21008;-79
2022/05/25 05:03:38;;;;;;;20.88;16.60;;;;;;;14.89;99.23;97683.91;1766817;80;21083;-79
2022/05/25 05:06:06;;;;;;;23.00;16.62;;;;;;;14.97;99.25;97686.42;1739916;81;20957;-84
2022/05/25 05:08:32;;;;;;;24.07;16.62;;;;;;;15.03;99.44;97676.95;1752666;81;21153;-79
2022/05/25 05:11:11;;;;;;;22.13;15.60;;;;;;;15.08;99.82;97674.89;1780613;79;20988;-79
2022/05/25 05:13:38;;;;;;;18.80;16.37;;;;;;;15.17;99.27;97683.09;1731556;81;21012;-81
2022/05/25 05:16:07;;;;;;;23.70;17.57;;;;;;;15.21;99.08;97682.69;1752035;81;21406;-84
2022/05/25 05:18:33;;;;;;;20.57;15.70;;;;;;;15.26;98.83;97687.21;1752668;81;21037;-80
2022/05/25 05:20:59;;;;;;;20.40;16.00;;;;;;;15.33;98.76;97688.91;1757989;81;22075;-84
2022/05/25 05:23:25;;;;;;;20.08;16.37;;;;;;;15.37;98.57;97685.78;1751743;81;20934;-79
2022/05/25 05:25:51;;;;;;;20.10;16.90;;;;;;;15.44;98.47;97685.55;1766445;79;20893;-79
2022/05/25 05:28:19;;;;;;;25.75;21.17;;;;;;;15.52;98.37;97682.59;1732621;81;20925;-84
2022/05/25 05:30:51;;;;;;;23.77;19.45;;;;;;;15.59;98.19;97680.76;1761521;81;21010;-83
2022/05/25 05:33:17;;;;;;;19.27;16.07;;;;;;;15.68;98.03;97686.49;1781013;80;21123;-84
2022/05/25 05:35:44;;;;;;;24.90;18.37;;;;;;;15.78;97.99;97681.27;1713858;82;20908;-79
2022/05/25 05:38:10;;;;;;;21.70;16.17;;;;;;;15.82;97.70;97679.52;1735349;81;21477;-79
2022/05/25 05:40:36;;;;;;;18.87;16.25;;;;;;;15.97;97.59;97680.94;1758312;81;20962;-84
2022/05/25 05:43:02;;;;;;;22.98;16.90;;;;;;;16.01;97.42;97684.64;1751959;81;21064;-80
2022/05/25 05:45:30;;;;;;;19.67;16.27;;;;;;;15.98;97.11;97684.73;1752228;81;21914;-84
2022/05/25 05:48:03;;;;;;;27.98;17.02;;;;;;;16.00;96.97;97679.74;1751928;81;21029;-80
2022/05/25 05:50:30;;;;;;;18.95;16.00;;;;;;;16.06;97.00;97685.30;1746291;81;21000;-80
2022/05/25 05:52:56;;;;;;;23.85;15.43;;;;;;;16.13;96.83;97686.14;1734142;81;21085;-84
2022/05/25 05:55:22;;;;;;;18.48;15.63;;;;;;;16.13;96.47;97683.98;1701638;81;21035;-84
2022/05/25 05:57:48;;;;;;;21.68;15.68;;;;;;;16.14;96.22;97686.38;1731911;81;21653;-79
2022/05/25 06:00:15;;;;;;;17.15;15.38;;;;;;;16.18;96.10;97692.02;1758921;80;21007;-80
2022/05/25 06:02:42;;;;;;;19.48;17.23;;;;;;;16.17;95.89;97689.86;1773563;80;21328;-84
2022/05/25 06:05:10;;;;;;;20.48;15.85;;;;;;;16.18;95.79;97681.09;1741070;81;21028;-80
2022/05/25 06:07:37;;;;;;;18.10;16.17;;;;;;;16.16;95.84;97681.98;1731360;81;21503;-84
2022/05/25 06:10:04;;;;;;;25.00;17.32;;;;;;;16.16;97.35;97677.88;1752558;80;21319;-84
2022/05/25 06:12:32;;;;;;;19.42;17.37;;;;;;;16.23;96.80;97675.44;1723574;81;21036;-84
2022/05/25 06:14:58;;;;;;;19.52;16.15;;;;;;;16.34;96.47;97678.09;1745021;80;21117;-80
2022/05/25 06:20:09;;;;;;;19.25;16.20;;;;;;;16.39;95.72;97666.16;1737380;79;21394;-80
2022/05/25 06:22:35;;;;;;;21.07;16.45;;;;;;;16.29;95.42;97669.48;1709790;81;21965;-83
2022/05/25 06:25:02;;;;;;;19.02;16.57;;;;;;;16.35;95.49;97672.85;1739176;80;21054;-83
2022/05/25 06:27:28;;;;;;;20.05;17.27;;;;;;;16.42;95.32;97671.80;1745582;81;21451;-84
2022/05/25 06:29:54;;;;;;;22.90;16.82;;;;;;;16.52;95.09;97673.38;1753610;81;20992;-84
2022/05/25 06:32:22;;;;;;;19.67;16.32;;;;;;;16.64;95.53;97662.53;1746895;80;20984;-83
2022/05/25 06:34:49;;;;;;;20.27;17.98;;;;;;;16.71;95.18;97662.87;1740008;80;21239;-83
2022/05/25 06:37:21;;;;;;;20.12;17.10;;;;;;;16.81;96.32;97658.39;1744753;80;21528;-84
2022/05/25 06:39:46;;;;;;;26.87;16.40;;;;;;;16.94;95.44;97655.21;1751124;80;21015;-83
2022/05/25 06:42:12;;;;;;;22.15;16.73;;;;;;;17.12;95.09;97647.13;1753605;80;20884;-85
2022/05/25 06:44:38;;;;;;;20.50;16.42;;;;;;;17.19;94.52;97646.05;1742858;80;21595;-84
2022/05/25 06:47:05;;;;;;;19.17;16.20;;;;;;;17.39;94.31;97647.20;1740968;80;20994;-83
2022/05/25 06:49:32;;;;;;;17.57;14.70;;;;;;;17.44;93.82;97655.80;1742977;80;20997;-84
2022/05/25 06:51:57;;;;;;;17.50;13.83;;;;;;;17.41;93.67;97657.81;1741227;80;21736;-80
2022/05/25 06:54:23;;;;;;;18.00;15.05;;;;;;;17.36;92.58;97653.35;1740757;80;20956;-80
2022/05/25 06:56:50;;;;;;;17.50;15.60;;;;;;;17.24;92.89;97653.83;1741100;80;21078;-80
2022/05/25 06:59:16;;;;;;;18.80;15.50;;;;;;;17.27;92.67;97651.23;1740461;80;21614;-79
2022/05/25 07:01:41;;;;;;;20.88;16.80;;;;;;;17.32;91.81;97655.13;1753987;81;20969;-84
2022/05/25 07:04:07;;;;;;;24.47;16.82;;;;;;;17.36;92.20;97660.20;1751835;80;20907;-84
2022/05/25 07:06:37;;;;;;;17.05;15.25;;;;;;;17.53;92.01;97663.39;1744596;80;20897;-84
2022/05/25 07:09:04;;;;;;;17.90;15.58;;;;;;;17.69;91.68;97665.77;1758354;80;21050;-84
2022/05/25 07:11:30;;;;;;;20.57;16.95;;;;;;;17.85;91.62;97656.94;1732705;81;21139;-80
2022/05/25 07:13:58;;;;;;;22.32;15.80;;;;;;;17.99;91.54;97662.38;1741778;81;21457;-80
2022/05/25 07:16:24;;;;;;;19.57;14.38;;;;;;;18.01;90.48;97662.04;1742189;81;21059;-80
2022/05/25 07:18:50;;;;;;;19.77;16.10;;;;;;;18.00;90.27;97658.50;1743113;80;21820;-80
2022/05/25 07:21:19;;;;;;;20.82;14.70;;;;;;;17.90;90.10;97648.53;1740123;81;21007;-80
2022/05/25 07:23:47;;;;;;;15.90;14.23;;;;;;;17.81;90.63;97642.32;1742965;80;21836;-80
2022/05/25 07:26:13;;;;;;;18.70;14.63;;;;;;;17.84;90.35;97649.86;1747261;80;21029;-80
2022/05/25 07:28:39;;;;;;;19.35;15.08;;;;;;;17.94;90.42;97651.61;1771661;80;20997;-80
2022/05/25 07:31:25;;;;;;;28.95;22.73;;;;;;;17.98;90.31;97658.61;1762872;80;21411;-80
2022/05/25 07:34:00;;;;;;;28.55;23.77;;;;;;;18.00;90.43;97659.06;1744759;79;21039;-84
2022/05/25 07:36:26;;;;;;;22.02;17.10;;;;;;;18.03;90.01;97669.34;1752598;80;21096;-84
2022/05/25 07:38:52;;;;;;;26.42;15.55;;;;;;;18.03;89.70;97670.72;1750856;80;20885;-84
2022/05/25 07:41:19;;;;;;;21.25;15.40;;;;;;;18.06;89.73;97669.27;1748412;80;21027;-84
2022/05/25 07:43:44;;;;;;;18.73;14.85;;;;;;;18.08;89.55;97671.89;1768256;79;21057;-84
2022/05/25 07:46:10;;;;;;;32.33;24.27;;;;;;;18.13;89.37;97674.44;1751977;80;20874;-84
2022/05/25 07:48:36;;;;;;;23.15;19.00;;;;;;;18.22;89.07;97679.84;1755664;80;21268;-84
2022/05/25 07:51:03;;;;;;;16.57;14.83;;;;;;;18.27;89.05;97674.92;1770185;79;20931;-84
2022/05/25 07:56:14;;;;;;;23.10;17.65;;;;;;;18.48;88.55;97680.95;1747289;79;21082;-80
2022/05/25 07:58:40;;;;;;;16.77;14.33;;;;;;;18.57;88.39;97681.65;1768824;80;22424;-80
2022/05/25 08:01:14;;;;;;;18.87;13.98;;;;;;;18.69;87.86;97689.92;1770823;79;21034;-80
2022/05/25 08:06:26;;;;;;;19.02;13.15;;;;;;;18.60;87.33;97684.50;1743046;79;21125;-84
2022/05/25 08:08:52;;;;;;;17.50;14.10;;;;;;;18.66;87.26;97684.33;1716628;79;21114;-84
2022/05/25 08:11:20;;;;;;;20.00;15.00;;;;;;;18.72;87.38;97687.09;1744850;79;21062;-85
2022/05/25 08:13:48;;;;;;;23.00;16.67;;;;;;;18.76;86.25;97687.42;1746142;79;21594;-85
2022/05/25 08:16:15;;;;;;;18.65;13.40;;;;;;;18.86;86.57;97689.72;1743508;79;21440;-84
2022/05/25 08:18:41;;;;;;;16.05;11.78;;;;;;;18.95;86.22;97680.00;1748616;79;21060;-84
2022/05/25 08:21:07;;;;;;;16.50;12.70;;;;;;;19.13;86.13;97680.58;1745435;79;20916;-85
2022/05/25 08:23:33;;;;;;;16.67;11.83;;;;;;;19.32;86.00;97684.14;1755412;79;21063;-84
2022/05/25 08:25:59;;;;;;;19.67;12.90;;;;;;;19.42;85.60;97682.29;1743881;79;21093;-84
2022/05/25 08:28:24;;;;;;;16.77;12.58;;;;;;;19.52;85.24;97674.94;1740692;81;20955;-85
2022/05/25 08:30:50;;;;;;;16.67;13.00;;;;;;;19.80;84.32;97673.63;1743684;79;20979;-84
2022/05/25 08:33:18;;;;;;;14.38;12.33;;;;;;;20.06;82.55;97681.45;1758957;79;20925;-85
2022/05/25 08:35:45;;;;;;;13.32;11.48;;;;;;;20.27;83.17;97668.89;1769527;79;21040;-84
2022/05/25 08:38:11;;;;;;;15.60;11.63;;;;;;;20.52;83.49;97668.21;1754666;79;21131;-85
2022/05/25 08:40:37;;;;;;;21.10;12.53;;;;;;;20.75;81.85;97667.81;1760372;81;20928;-85
2022/05/25 08:43:25;;;;;;;13.53;11.35;;;;;;;20.88;80.12;97676.80;1755492;81;21113;-85
2022/05/25 08:45:58;;;;;;;12.68;10.85;;;;;;;21.00;77.75;97670.39;1755049;79;21035;-84
2022/05/25 08:48:25;;;;;;;14.20;12.05;;;;;;;21.34;78.75;97673.00;1752253;79;21153;-85
2022/05/25 08:51:04;;;;;;;13.80;10.70;;;;;;;21.52;77.76;97682.47;1743354;79;21837;-85
2022/05/25 08:53:30;;;;;;;15.45;11.50;;;;;;;21.63;76.24;97675.84;1752685;79;21066;-85
2022/05/25 08:56:19;;;;;;;13.22;11.35;;;;;;;21.88;76.63;97673.63;1779483;79;20893;-85
2022/05/25 08:58:49;;;;;;;11.78;10.23;;;;;;;22.14;76.14;97674.38;1733670;81;21444;-85
2022/05/25 09:01:21;;;;;;;16.00;10.88;;;;;;;22.04;73.86;97678.46;1765793;79;21528;-85
2022/05/25 09:04:04;;;;;;;15.13;12.95;;;;;;;21.76;71.62;97682.80;1717827;80;21741;-85
2022/05/25 09:06:58;;;;;;;13.43;11.88;;;;;;;21.66;74.54;97684.76;1745741;79;21437;-85
2022/05/25 09:09:38;;;;;;;15.18;10.65;;;;;;;21.40;74.49;97682.02;1764153;79;21051;-85
2022/05/25 09:12:12;;;;;;;13.85;10.43;;;;;;;21.21;74.01;97682.52;1744913;81;21141;-85
2022/05/25 09:14:44;;;;;;;11.55;10.38;;;;;;;21.04;74.76;97688.61;1757635;79;20979;-84
2022/05/25 09:17:17;;;;;;;15.68;10.28;;;;;;;20.90;75.51;97691.58;1789939;79;21300;-84
2022/05/25 09:19:44;;;;;;;13.60;10.40;;;;;;;20.58;75.20;97690.17;1760434;80;20971;-84
2022/05/25 09:22:13;;;;;;;19.73;11.97;;;;;;;20.32;76.59;97695.33;1743401;80;21101;-85
2022/05/25 09:24:39;;;;;;;13.62;11.53;;;;;;;20.17;76.52;97689.45;1747235;80;21424;-85
2022/05/25 09:27:07;;;;;;;14.00;9.93;;;;;;;20.03;77.75;97684.11;1750357;80;20901;-84
2022/05/25 09:29:33;;;;;;;13.18;11.33;;;;;;;19.73;78.82;97691.29;1753817;80;21137;-85
2022/05/25 09:32:12;;;;;;;12.63;10.80;;;;;;;19.70;79.17;97696.11;1782950;79;21414;-85
2022/05/25 09:34:46;;;;;;;11.95;10.75;;;;;;;19.71;78.93;97697.72;1747019;79;21117;-85
2022/05/25 09:37:44;;;;;;;12.78;10.82;;;;;;;19.30;80.16;97697.39;1758584;79;21070;-84
2022/05/25 09:40:33;;;;;;;14.63;13.13;;;;;;;19.25;80.30;97703.13;1743972;80;22155;-85
2022/05/25 09:43:01;;;;;;;17.70;14.90;;;;;;;19.11;81.71;97702.89;1759913;79;21207;-85
2022/05/25 09:45:43;;;;;;;16.82;14.53;;;;;;;19.00;82.11;97701.75;1694586;80;21059;-84
2022/05/25 09:48:31;;;;;;;18.37;15.45;;;;;;;18.83;84.19;97708.83;1754316;81;21157;-85
2022/05/25 09:51:09;;;;;;;20.57;17.17;;;;;;;18.70;84.92;97706.61;1749707;80;20998;-85
2022/05/25 09:53:41;;;;;;;26.70;19.70;;;;;;;18.49;86.41;97710.78;1752002;80;21075;-85
2022/05/25 09:56:29;;;;;;;24.07;21.23;;;;;;;18.40;85.97;97709.27;1749635;80;21456;-86
2022/05/25 09:58:58;;;;;;;25.75;20.65;;;;;;;18.29;86.98;97706.15;1753064;80;22228;-85
2022/05/25 10:01:44;;;;;;;27.22;23.55;;;;;;;18.16;88.42;97706.66;1775738;79;21095;-85
2022/05/25 10:04:52;;;;;;;28.30;23.35;;;;;;;18.09;88.79;97710.51;1748531;80;21098;-85
2022/05/25 10:07:25;;;;;;;31.93;24.00;;;;;;;18.08;88.76;97704.80;1774487;79;21147;-85
2022/05/25 10:09:52;;;;;;;32.67;26.90;;;;;;;17.87;89.40;97706.77;1746795;79;21120;-85
2022/05/25 10:12:44;;;;;;;30.27;25.23;;;;;;;17.67;90.17;97710.48;1754168;80;21043;-85
2022/05/25 10:15:14;;;;;;;30.88;25.88;;;;;;;17.61;91.00;97713.20;1676461;84;21150;-85
2022/05/25 10:17:47;;;;;;;32.05;27.52;;;;;;;17.57;89.99;97714.19;1735132;80;21014;-85
2022/05/25 10:20:28;;;;;;;32.23;27.32;;;;;;;17.40;92.02;97719.20;1742394;80;21180;-84
2022/05/25 10:23:22;;;;;;;34.33;28.10;;;;;;;17.29;92.58;97724.27;1756356;80;21134;-80
2022/05/25 10:25:57;;;;;;;32.95;28.83;;;;;;;17.20;92.84;97733.89;1772378;80;21122;-80
2022/05/25 10:28:38;;;;;;;37.95;28.92;;;;;;;17.10;94.34;97733.47;1759851;79;21108;-79
2022/05/25 10:37:12;;;;;;;39.60;29.15;;;;;;;16.85;95.66;97750.22;1737305;80;21532;-80
2022/05/25 10:39:41;;;;;;;34.48;26.30;;;;;;;16.65;98.19;97746.20;1754299;80;21082;-79
2022/05/25 10:42:18;;;;;;;32.95;25.27;;;;;;;16.56;97.94;97757.16;1773090;80;20977;-84
2022/05/25 10:45:09;;;;;;;34.13;28.05;;;;;;;16.54;97.36;97760.80;1742822;80;21087;-84
2022/05/25 10:48:08;;;;;;;30.85;27.32;;;;;;;16.52;98.06;97764.98;1734728;81;21455;-84
2022/05/25 10:50:57;;;;;;;37.00;27.85;;;;;;;16.42;99.93;97763.97;1754068;80;20997;-84
2022/05/25 10:56:52;;;;;;;29.98;24.23;;;;;;;16.45;98.81;97761.94;1768574;79;21317;-83
2022/05/25 10:59:33;;;;;;;;;;;;;;;16.37;99.99;97773.13;1764494;79;21052;-83
2022/05/25 11:02:08;;;;;;;24.70;21.20;;;;;;;16.30;100.00;97764.60;1764549;79;20313;-83
2022/05/25 11:05:23;;;;;;;22.45;18.37;;;;;;;16.38;100.00;97766.52;1781388;79;21131;-83
2022/05/25 11:07:53;;;;;;;18.98;15.85;;;;;;;16.34;100.00;97765.02;1742923;80;21076;-83
2022/05/25 11:10:39;;;;;;;16.97;14.40;;;;;;;16.23;100.00;97767.81;1715893;80;21048;-83
2022/05/25 11:13:51;;;;;;;15.53;13.93;;;;;;;16.17;100.00;97771.05;1679480;80;21408;-83
2022/05/25 11:16:46;;;;;;;15.55;12.80;;;;;;;16.19;100.00;97768.23;1745685;80;21488;-83
2022/05/25 11:19:32;;;;;;;10.98;9.85;;;;;;;16.17;100.00;97775.95;1745769;80;21464;-83
2022/05/25 11:22:12;;;;;;;10.93;9.53;;;;;;;16.07;100.00;97785.84;1750690;81;21099;-83
2022/05/25 11:25:15;;;;;;;10.50;9.40;;;;;;;15.80;100.00;97785.55;1759312;80;21076;-83
2022/05/25 11:27:52;;;;;;;10.10;8.93;;;;;;;15.70;99.92;97798.16;1751683;81;20980;-82
2022/05/25 11:30:39;;;;;;;10.10;8.45;;;;;;;15.55;99.89;97798.56;1748650;80;21053;-82
2022/05/25 11:33:34;;;;;;;8.43;7.58;;;;;;;15.37;100.00;97808.06;1752192;80;21192;-80
2022/05/25 11:36:40;;;;;;;7.05;6.10;;;;;;;15.24;99.98;97810.36;1747146;80;21134;-79
2022/05/25 11:39:17;;;;;;;6.37;5.40;;;;;;;15.18;99.75;97820.59;1741202;80;21024;-79
2022/05/25 11:41:53;;;;;;;6.30;5.40;;;;;;;14.83;100.00;97832.45;1762095;80;21498;-79
2022/05/25 11:44:45;;;;;;;4.92;4.25;;;;;;;14.58;100.00;97829.23;1741022;80;21054;-79
2022/05/25 11:47:38;;;;;;;6.42;4.95;;;;;;;14.33;100.00;97837.98;1756935;80;21296;-79
2022/05/25 11:50:11;;;;;;;5.70;5.00;;;;;;;14.28;100.00;97847.10;1771018;79;21499;-77
2022/05/25 11:53:04;;;;;;;7.92;5.30;;;;;;;14.07;100.00;97851.37;1745852;81;20956;-77
2022/05/25 11:55:44;;;;;;;6.45;5.25;;;;;;;13.87;100.00;97855.92;1745130;81;21461;-77
2022/05/25 11:59:00;;;;;;;6.10;5.50;;;;;;;13.96;100.00;97857.61;1742855;81;21106;-77
2022/05/25 12:01:43;;;;;;;7.55;6.35;;;;;;;13.85;100.00;97860.88;1762504;79;21131;-77